sensor_id;sensor_type;location;lat;lon;timestamp;P1;durP1;ratioP1;P2;durP2;ratioP2
8540;SDS011;4308;51.294;6.590;2023-04-25T00:00:19;14.60;;;5.00;;
8540;SDS011;4308;51.294;6.590;2023-04-25T00:02:47;11.10;;;5.23;;
8540;SDS011;4308;51.294;6.590;2023-04-25T00:05:15;15.27;;;5.17;;
8540;SDS011;4308;51.294;6.590;2023-04-25T00:07:43;18.03;;;6.37;;
8540;SDS011;4308;51.294;6.590;2023-04-25T00:10:10;15.73;;;5.47;;
8540;SDS011;4308;51.294;6.590;2023-04-25T00:12:38;14.30;;;5.80;;
8540;SDS011;4308;51.294;6.590;2023-04-25T00:15:06;15.30;;;4.90;;
8540;SDS011;4308;51.294;6.590;2023-04-25T00:17:33;15.87;;;4.83;;
8540;SDS011;4308;51.294;6.590;2023-04-25T00:20:01;12.37;;;4.70;;
8540;SDS011;4308;51.294;6.590;2023-04-25T00:22:29;9.03;;;4.50;;
8540;SDS011;4308;51.294;6.590;2023-04-25T00:24:56;15.17;;;5.87;;
8540;SDS011;4308;51.294;6.590;2023-04-25T00:27:24;12.47;;;4.87;;
8540;SDS011;4308;51.294;6.590;2023-04-25T00:29:52;17.27;;;5.03;;
8540;SDS011;4308;51.294;6.590;2023-04-25T00:32:19;13.43;;;5.43;;
8540;SDS011;4308;51.294;6.590;2023-04-25T00:34:47;13.37;;;4.67;;
8540;SDS011;4308;51.294;6.590;2023-04-25T00:37:14;11.63;;;5.53;;
8540;SDS011;4308;51.294;6.590;2023-04-25T00:39:42;13.00;;;5.00;;
8540;SDS011;4308;51.294;6.590;2023-04-25T00:42:09;11.07;;;4.87;;
8540;SDS011;4308;51.294;6.590;2023-04-25T00:44:37;16.13;;;5.17;;
8540;SDS011;4308;51.294;6.590;2023-04-25T00:47:05;13.30;;;5.27;;
8540;SDS011;4308;51.294;6.590;2023-04-25T00:49:33;11.10;;;4.83;;
8540;SDS011;4308;51.294;6.590;2023-04-25T00:52:01;13.33;;;5.40;;
8540;SDS011;4308;51.294;6.590;2023-04-25T00:54:28;13.37;;;4.87;;
8540;SDS011;4308;51.294;6.590;2023-04-25T00:56:56;13.93;;;4.50;;
8540;SDS011;4308;51.294;6.590;2023-04-25T00:59:24;11.63;;;4.77;;
8540;SDS011;4308;51.294;6.590;2023-04-25T01:01:52;16.10;;;5.80;;
8540;SDS011;4308;51.294;6.590;2023-04-25T01:04:20;16.33;;;4.83;;
8540;SDS011;4308;51.294;6.590;2023-04-25T01:06:48;13.90;;;5.20;;
8540;SDS011;4308;51.294;6.590;2023-04-25T01:09:16;24.13;;;4.90;;
8540;SDS011;4308;51.294;6.590;2023-04-25T01:11:43;11.40;;;4.57;;
8540;SDS011;4308;51.294;6.590;2023-04-25T01:14:11;15.20;;;4.83;;
8540;SDS011;4308;51.294;6.590;2023-04-25T01:16:38;14.53;;;5.77;;
8540;SDS011;4308;51.294;6.590;2023-04-25T01:19:08;15.37;;;5.20;;
8540;SDS011;4308;51.294;6.590;2023-04-25T01:21:36;10.70;;;4.33;;
8540;SDS011;4308;51.294;6.590;2023-04-25T01:24:04;13.30;;;5.10;;
8540;SDS011;4308;51.294;6.590;2023-04-25T01:26:32;14.10;;;5.17;;
8540;SDS011;4308;51.294;6.590;2023-04-25T01:29:00;10.03;;;4.50;;
8540;SDS011;4308;51.294;6.590;2023-04-25T01:31:28;14.37;;;4.83;;
8540;SDS011;4308;51.294;6.590;2023-04-25T01:33:55;8.40;;;4.50;;
8540;SDS011;4308;51.294;6.590;2023-04-25T01:36:23;12.97;;;4.90;;
8540;SDS011;4308;51.294;6.590;2023-04-25T01:38:50;10.87;;;4.60;;
8540;SDS011;4308;51.294;6.590;2023-04-25T01:41:18;12.67;;;5.07;;
8540;SDS011;4308;51.294;6.590;2023-04-25T01:43:46;10.93;;;4.83;;
8540;SDS011;4308;51.294;6.590;2023-04-25T01:46:13;12.63;;;4.30;;
8540;SDS011;4308;51.294;6.590;2023-04-25T01:48:41;8.70;;;4.53;;
8540;SDS011;4308;51.294;6.590;2023-04-25T01:51:09;11.43;;;3.43;;
8540;SDS011;4308;51.294;6.590;2023-04-25T01:53:36;10.30;;;4.50;;
8540;SDS011;4308;51.294;6.590;2023-04-25T01:56:04;9.40;;;4.87;;
8540;SDS011;4308;51.294;6.590;2023-04-25T01:58:32;11.73;;;4.80;;
8540;SDS011;4308;51.294;6.590;2023-04-25T02:01:00;9.67;;;3.80;;
8540;SDS011;4308;51.294;6.590;2023-04-25T02:03:27;10.30;;;4.07;;
8540;SDS011;4308;51.294;6.590;2023-04-25T02:05:55;10.43;;;4.33;;
8540;SDS011;4308;51.294;6.590;2023-04-25T02:08:23;11.67;;;4.17;;
8540;SDS011;4308;51.294;6.590;2023-04-25T02:10:50;8.03;;;4.37;;
8540;SDS011;4308;51.294;6.590;2023-04-25T02:13:18;9.77;;;4.53;;
8540;SDS011;4308;51.294;6.590;2023-04-25T02:15:45;9.80;;;4.30;;
8540;SDS011;4308;51.294;6.590;2023-04-25T02:18:13;14.83;;;5.07;;
8540;SDS011;4308;51.294;6.590;2023-04-25T02:20:41;9.33;;;4.47;;
8540;SDS011;4308;51.294;6.590;2023-04-25T02:23:08;11.80;;;4.73;;
8540;SDS011;4308;51.294;6.590;2023-04-25T02:25:36;10.03;;;4.17;;
8540;SDS011;4308;51.294;6.590;2023-04-25T02:28:03;9.70;;;4.00;;
8540;SDS011;4308;51.294;6.590;2023-04-25T02:30:31;11.17;;;3.77;;
8540;SDS011;4308;51.294;6.590;2023-04-25T02:32:58;10.83;;;4.03;;
8540;SDS011;4308;51.294;6.590;2023-04-25T02:35:26;9.50;;;4.50;;
8540;SDS011;4308;51.294;6.590;2023-04-25T02:37:54;14.33;;;4.70;;
8540;SDS011;4308;51.294;6.590;2023-04-25T02:40:21;11.90;;;4.80;;
8540;SDS011;4308;51.294;6.590;2023-04-25T02:42:49;10.70;;;4.63;;
8540;SDS011;4308;51.294;6.590;2023-04-25T02:45:16;9.50;;;4.80;;
8540;SDS011;4308;51.294;6.590;2023-04-25T02:47:44;11.77;;;4.57;;
8540;SDS011;4308;51.294;6.590;2023-04-25T02:50:11;23.03;;;6.20;;
8540;SDS011;4308;51.294;6.590;2023-04-25T02:52:39;11.60;;;4.30;;
8540;SDS011;4308;51.294;6.590;2023-04-25T02:55:06;14.20;;;5.10;;
8540;SDS011;4308;51.294;6.590;2023-04-25T02:57:34;13.20;;;4.87;;
8540;SDS011;4308;51.294;6.590;2023-04-25T03:00:02;10.13;;;5.73;;
8540;SDS011;4308;51.294;6.590;2023-04-25T03:02:29;12.17;;;5.40;;
8540;SDS011;4308;51.294;6.590;2023-04-25T03:04:57;11.53;;;5.07;;
8540;SDS011;4308;51.294;6.590;2023-04-25T03:07:25;11.47;;;4.83;;
8540;SDS011;4308;51.294;6.590;2023-04-25T03:09:52;17.80;;;5.37;;
8540;SDS011;4308;51.294;6.590;2023-04-25T03:12:20;16.00;;;5.07;;
8540;SDS011;4308;51.294;6.590;2023-04-25T03:14:47;18.53;;;5.17;;
8540;SDS011;4308;51.294;6.590;2023-04-25T03:17:15;14.97;;;5.13;;
8540;SDS011;4308;51.294;6.590;2023-04-25T03:19:42;13.63;;;5.07;;
8540;SDS011;4308;51.294;6.590;2023-04-25T03:22:10;15.07;;;5.47;;
8540;SDS011;4308;51.294;6.590;2023-04-25T03:24:37;15.43;;;5.63;;
8540;SDS011;4308;51.294;6.590;2023-04-25T03:27:05;14.73;;;5.80;;
8540;SDS011;4308;51.294;6.590;2023-04-25T03:29:32;15.33;;;5.20;;
8540;SDS011;4308;51.294;6.590;2023-04-25T03:32:00;15.80;;;5.20;;
8540;SDS011;4308;51.294;6.590;2023-04-25T03:34:28;19.27;;;5.67;;
8540;SDS011;4308;51.294;6.590;2023-04-25T03:36:55;17.97;;;5.60;;
8540;SDS011;4308;51.294;6.590;2023-04-25T03:39:23;15.00;;;4.90;;
8540;SDS011;4308;51.294;6.590;2023-04-25T03:41:51;14.00;;;5.50;;
8540;SDS011;4308;51.294;6.590;2023-04-25T03:44:18;15.80;;;5.37;;
8540;SDS011;4308;51.294;6.590;2023-04-25T03:46:46;15.73;;;4.97;;
8540;SDS011;4308;51.294;6.590;2023-04-25T03:49:13;18.03;;;5.07;;
8540;SDS011;4308;51.294;6.590;2023-04-25T03:51:44;21.00;;;5.20;;
8540;SDS011;4308;51.294;6.590;2023-04-25T03:54:12;13.40;;;5.07;;
8540;SDS011;4308;51.294;6.590;2023-04-25T03:56:39;18.10;;;4.80;;
8540;SDS011;4308;51.294;6.590;2023-04-25T03:59:07;13.77;;;5.07;;
8540;SDS011;4308;51.294;6.590;2023-04-25T04:01:34;11.87;;;5.10;;
8540;SDS011;4308;51.294;6.590;2023-04-25T04:04:02;15.63;;;5.83;;
8540;SDS011;4308;51.294;6.590;2023-04-25T04:06:30;17.30;;;6.57;;
8540;SDS011;4308;51.294;6.590;2023-04-25T04:08:57;13.90;;;5.80;;
8540;SDS011;4308;51.294;6.590;2023-04-25T04:11:25;18.60;;;5.57;;
8540;SDS011;4308;51.294;6.590;2023-04-25T04:13:53;16.83;;;5.80;;
8540;SDS011;4308;51.294;6.590;2023-04-25T04:16:20;19.13;;;5.80;;
8540;SDS011;4308;51.294;6.590;2023-04-25T04:18:48;13.87;;;5.73;;
8540;SDS011;4308;51.294;6.590;2023-04-25T04:21:15;16.47;;;6.03;;
8540;SDS011;4308;51.294;6.590;2023-04-25T04:23:43;19.23;;;6.13;;
8540;SDS011;4308;51.294;6.590;2023-04-25T04:26:10;16.70;;;6.50;;
8540;SDS011;4308;51.294;6.590;2023-04-25T04:28:38;14.07;;;4.83;;
8540;SDS011;4308;51.294;6.590;2023-04-25T04:31:05;21.73;;;6.27;;
8540;SDS011;4308;51.294;6.590;2023-04-25T04:33:33;14.67;;;5.53;;
8540;SDS011;4308;51.294;6.590;2023-04-25T04:36:01;20.67;;;5.90;;
8540;SDS011;4308;51.294;6.590;2023-04-25T04:38:28;19.40;;;5.80;;
8540;SDS011;4308;51.294;6.590;2023-04-25T04:40:56;13.43;;;5.33;;
8540;SDS011;4308;51.294;6.590;2023-04-25T04:43:24;17.13;;;5.67;;
8540;SDS011;4308;51.294;6.590;2023-04-25T04:45:51;15.33;;;5.17;;
8540;SDS011;4308;51.294;6.590;2023-04-25T04:48:19;13.53;;;4.93;;
8540;SDS011;4308;51.294;6.590;2023-04-25T04:50:46;16.30;;;5.57;;
8540;SDS011;4308;51.294;6.590;2023-04-25T04:53:14;18.37;;;5.90;;
8540;SDS011;4308;51.294;6.590;2023-04-25T04:55:41;13.60;;;5.57;;
8540;SDS011;4308;51.294;6.590;2023-04-25T04:58:09;17.40;;;5.93;;
8540;SDS011;4308;51.294;6.590;2023-04-25T05:00:36;18.20;;;5.97;;
8540;SDS011;4308;51.294;6.590;2023-04-25T05:03:04;14.77;;;5.37;;
8540;SDS011;4308;51.294;6.590;2023-04-25T05:05:32;16.30;;;5.70;;
8540;SDS011;4308;51.294;6.590;2023-04-25T05:07:59;13.63;;;4.97;;
8540;SDS011;4308;51.294;6.590;2023-04-25T05:10:27;17.67;;;5.47;;
8540;SDS011;4308;51.294;6.590;2023-04-25T05:12:54;16.37;;;5.43;;
8540;SDS011;4308;51.294;6.590;2023-04-25T05:15:22;15.80;;;5.07;;
8540;SDS011;4308;51.294;6.590;2023-04-25T05:17:49;17.37;;;5.63;;
8540;SDS011;4308;51.294;6.590;2023-04-25T05:20:17;11.70;;;4.47;;
8540;SDS011;4308;51.294;6.590;2023-04-25T05:22:45;15.00;;;5.20;;
8540;SDS011;4308;51.294;6.590;2023-04-25T05:25:12;12.43;;;4.50;;
8540;SDS011;4308;51.294;6.590;2023-04-25T05:27:40;16.50;;;4.70;;
8540;SDS011;4308;51.294;6.590;2023-04-25T05:30:07;13.07;;;4.20;;
8540;SDS011;4308;51.294;6.590;2023-04-25T05:32:35;14.23;;;5.10;;
8540;SDS011;4308;51.294;6.590;2023-04-25T05:35:03;18.33;;;5.17;;
8540;SDS011;4308;51.294;6.590;2023-04-25T05:37:30;12.93;;;5.10;;
8540;SDS011;4308;51.294;6.590;2023-04-25T05:39:59;15.50;;;4.00;;
8540;SDS011;4308;51.294;6.590;2023-04-25T05:42:26;12.63;;;4.17;;
8540;SDS011;4308;51.294;6.590;2023-04-25T05:44:54;12.03;;;4.07;;
8540;SDS011;4308;51.294;6.590;2023-04-25T05:47:21;12.30;;;4.27;;
8540;SDS011;4308;51.294;6.590;2023-04-25T05:49:49;14.57;;;5.00;;
8540;SDS011;4308;51.294;6.590;2023-04-25T05:52:16;10.57;;;4.27;;
8540;SDS011;4308;51.294;6.590;2023-04-25T05:54:44;11.20;;;4.33;;
8540;SDS011;4308;51.294;6.590;2023-04-25T05:57:24;10.73;;;4.77;;
8540;SDS011;4308;51.294;6.590;2023-04-25T05:59:52;19.30;;;5.60;;
8540;SDS011;4308;51.294;6.590;2023-04-25T06:02:20;11.50;;;4.50;;
8540;SDS011;4308;51.294;6.590;2023-04-25T06:04:49;11.63;;;4.60;;
8540;SDS011;4308;51.294;6.590;2023-04-25T06:07:18;8.33;;;4.07;;
8540;SDS011;4308;51.294;6.590;2023-04-25T06:09:45;11.77;;;3.57;;
8540;SDS011;4308;51.294;6.590;2023-04-25T06:12:13;10.43;;;4.00;;
8540;SDS011;4308;51.294;6.590;2023-04-25T06:14:41;12.03;;;4.00;;
8540;SDS011;4308;51.294;6.590;2023-04-25T06:17:08;16.87;;;4.50;;
8540;SDS011;4308;51.294;6.590;2023-04-25T06:19:36;9.17;;;3.77;;
8540;SDS011;4308;51.294;6.590;2023-04-25T06:22:04;12.30;;;3.80;;
8540;SDS011;4308;51.294;6.590;2023-04-25T06:24:31;14.27;;;3.73;;
8540;SDS011;4308;51.294;6.590;2023-04-25T06:26:59;9.73;;;3.83;;
8540;SDS011;4308;51.294;6.590;2023-04-25T06:29:26;17.47;;;4.80;;
8540;SDS011;4308;51.294;6.590;2023-04-25T06:31:54;15.40;;;4.30;;
8540;SDS011;4308;51.294;6.590;2023-04-25T06:34:22;10.93;;;3.67;;
8540;SDS011;4308;51.294;6.590;2023-04-25T06:36:49;5.80;;;3.43;;
8540;SDS011;4308;51.294;6.590;2023-04-25T06:39:17;15.87;;;4.40;;
8540;SDS011;4308;51.294;6.590;2023-04-25T06:41:44;13.50;;;3.40;;
8540;SDS011;4308;51.294;6.590;2023-04-25T06:44:12;11.20;;;4.40;;
8540;SDS011;4308;51.294;6.590;2023-04-25T06:46:39;12.90;;;3.37;;
8540;SDS011;4308;51.294;6.590;2023-04-25T06:49:07;11.33;;;3.67;;
8540;SDS011;4308;51.294;6.590;2023-04-25T06:51:34;15.03;;;3.43;;
8540;SDS011;4308;51.294;6.590;2023-04-25T06:54:02;9.83;;;3.43;;
8540;SDS011;4308;51.294;6.590;2023-04-25T06:56:30;24.03;;;5.40;;
8540;SDS011;4308;51.294;6.590;2023-04-25T06:58:57;10.50;;;2.77;;
8540;SDS011;4308;51.294;6.590;2023-04-25T07:01:25;11.33;;;3.70;;
8540;SDS011;4308;51.294;6.590;2023-04-25T07:03:55;12.97;;;3.23;;
8540;SDS011;4308;51.294;6.590;2023-04-25T07:06:23;9.37;;;2.60;;
8540;SDS011;4308;51.294;6.590;2023-04-25T07:08:53;6.83;;;2.10;;
8540;SDS011;4308;51.294;6.590;2023-04-25T07:11:21;10.10;;;2.50;;
8540;SDS011;4308;51.294;6.590;2023-04-25T07:13:48;11.00;;;3.10;;
8540;SDS011;4308;51.294;6.590;2023-04-25T07:16:16;9.13;;;2.43;;
8540;SDS011;4308;51.294;6.590;2023-04-25T07:18:44;8.53;;;1.97;;
8540;SDS011;4308;51.294;6.590;2023-04-25T07:21:17;6.37;;;2.60;;
8540;SDS011;4308;51.294;6.590;2023-04-25T07:23:46;10.30;;;2.57;;
8540;SDS011;4308;51.294;6.590;2023-04-25T07:26:14;10.97;;;4.07;;
8540;SDS011;4308;51.294;6.590;2023-04-25T07:28:44;13.67;;;3.17;;
8540;SDS011;4308;51.294;6.590;2023-04-25T07:31:12;9.17;;;3.07;;
8540;SDS011;4308;51.294;6.590;2023-04-25T07:33:39;14.03;;;3.23;;
8540;SDS011;4308;51.294;6.590;2023-04-25T07:36:07;9.80;;;3.13;;
8540;SDS011;4308;51.294;6.590;2023-04-25T07:38:34;13.70;;;3.97;;
8540;SDS011;4308;51.294;6.590;2023-04-25T07:41:03;9.20;;;2.83;;
8540;SDS011;4308;51.294;6.590;2023-04-25T07:43:30;3.87;;;2.57;;
8540;SDS011;4308;51.294;6.590;2023-04-25T07:45:58;10.47;;;3.47;;
8540;SDS011;4308;51.294;6.590;2023-04-25T07:48:25;11.20;;;3.57;;
8540;SDS011;4308;51.294;6.590;2023-04-25T07:50:53;10.67;;;3.67;;
8540;SDS011;4308;51.294;6.590;2023-04-25T07:53:21;9.63;;;2.40;;
8540;SDS011;4308;51.294;6.590;2023-04-25T07:55:48;12.83;;;2.90;;
8540;SDS011;4308;51.294;6.590;2023-04-25T07:58:17;14.97;;;3.47;;
8540;SDS011;4308;51.294;6.590;2023-04-25T08:00:44;6.57;;;2.17;;
8540;SDS011;4308;51.294;6.590;2023-04-25T08:03:12;6.87;;;2.13;;
8540;SDS011;4308;51.294;6.590;2023-04-25T08:05:40;7.97;;;2.00;;
8540;SDS011;4308;51.294;6.590;2023-04-25T08:08:08;6.87;;;2.53;;
8540;SDS011;4308;51.294;6.590;2023-04-25T08:10:35;8.93;;;2.10;;
8540;SDS011;4308;51.294;6.590;2023-04-25T08:13:03;12.33;;;2.67;;
8540;SDS011;4308;51.294;6.590;2023-04-25T08:15:34;11.43;;;2.37;;
8540;SDS011;4308;51.294;6.590;2023-04-25T08:18:01;9.33;;;1.97;;
8540;SDS011;4308;51.294;6.590;2023-04-25T08:20:29;11.67;;;2.10;;
8540;SDS011;4308;51.294;6.590;2023-04-25T08:22:57;6.53;;;2.50;;
8540;SDS011;4308;51.294;6.590;2023-04-25T08:25:24;7.70;;;2.47;;
8540;SDS011;4308;51.294;6.590;2023-04-25T08:27:52;6.33;;;2.23;;
8540;SDS011;4308;51.294;6.590;2023-04-25T08:30:20;12.20;;;2.90;;
8540;SDS011;4308;51.294;6.590;2023-04-25T08:32:48;8.37;;;2.63;;
8540;SDS011;4308;51.294;6.590;2023-04-25T08:35:15;9.27;;;2.10;;
8540;SDS011;4308;51.294;6.590;2023-04-25T08:37:43;11.30;;;2.80;;
8540;SDS011;4308;51.294;6.590;2023-04-25T08:40:11;9.53;;;2.70;;
8540;SDS011;4308;51.294;6.590;2023-04-25T08:42:40;9.40;;;2.20;;
8540;SDS011;4308;51.294;6.590;2023-04-25T08:45:10;10.70;;;2.87;;
8540;SDS011;4308;51.294;6.590;2023-04-25T08:47:38;9.27;;;2.77;;
8540;SDS011;4308;51.294;6.590;2023-04-25T08:50:07;8.80;;;2.17;;
8540;SDS011;4308;51.294;6.590;2023-04-25T08:52:36;6.87;;;2.33;;
8540;SDS011;4308;51.294;6.590;2023-04-25T08:55:04;6.07;;;2.73;;
8540;SDS011;4308;51.294;6.590;2023-04-25T08:57:33;6.53;;;1.83;;
8540;SDS011;4308;51.294;6.590;2023-04-25T09:00:01;6.07;;;2.08;;
8540;SDS011;4308;51.294;6.590;2023-04-25T09:02:29;8.10;;;2.13;;
8540;SDS011;4308;51.294;6.590;2023-04-25T09:04:57;7.87;;;1.77;;
8540;SDS011;4308;51.294;6.590;2023-04-25T09:07:24;7.27;;;2.20;;
8540;SDS011;4308;51.294;6.590;2023-04-25T09:09:52;10.30;;;2.50;;
8540;SDS011;4308;51.294;6.590;2023-04-25T09:12:20;3.20;;;1.80;;
8540;SDS011;4308;51.294;6.590;2023-04-25T09:15:00;4.50;;;2.53;;
8540;SDS011;4308;51.294;6.590;2023-04-25T09:17:28;6.83;;;2.50;;
8540;SDS011;4308;51.294;6.590;2023-04-25T09:20:04;6.70;;;2.30;;
8540;SDS011;4308;51.294;6.590;2023-04-25T09:22:32;5.77;;;2.03;;
8540;SDS011;4308;51.294;6.590;2023-04-25T09:25:02;6.97;;;2.10;;
8540;SDS011;4308;51.294;6.590;2023-04-25T09:27:30;4.17;;;1.70;;
8540;SDS011;4308;51.294;6.590;2023-04-25T09:29:58;4.77;;;1.77;;
8540;SDS011;4308;51.294;6.590;2023-04-25T09:32:26;7.77;;;1.80;;
8540;SDS011;4308;51.294;6.590;2023-04-25T09:34:57;6.90;;;1.60;;
8540;SDS011;4308;51.294;6.590;2023-04-25T09:37:26;5.37;;;1.60;;
8540;SDS011;4308;51.294;6.590;2023-04-25T09:39:54;6.97;;;2.17;;
8540;SDS011;4308;51.294;6.590;2023-04-25T09:42:23;7.30;;;2.07;;
8540;SDS011;4308;51.294;6.590;2023-04-25T09:44:51;3.70;;;1.80;;
8540;SDS011;4308;51.294;6.590;2023-04-25T09:47:19;6.53;;;1.40;;
8540;SDS011;4308;51.294;6.590;2023-04-25T09:49:47;5.63;;;2.10;;
8540;SDS011;4308;51.294;6.590;2023-04-25T09:52:19;7.70;;;1.73;;
8540;SDS011;4308;51.294;6.590;2023-04-25T09:54:51;6.03;;;1.90;;
8540;SDS011;4308;51.294;6.590;2023-04-25T09:57:20;10.90;;;1.90;;
8540;SDS011;4308;51.294;6.590;2023-04-25T09:59:48;5.00;;;2.00;;
8540;SDS011;4308;51.294;6.590;2023-04-25T10:02:17;4.70;;;1.83;;
8540;SDS011;4308;51.294;6.590;2023-04-25T10:04:50;4.93;;;2.10;;
8540;SDS011;4308;51.294;6.590;2023-04-25T10:07:19;7.87;;;1.83;;
8540;SDS011;4308;51.294;6.590;2023-04-25T10:09:49;6.77;;;2.00;;
8540;SDS011;4308;51.294;6.590;2023-04-25T10:12:19;8.63;;;2.73;;
8540;SDS011;4308;51.294;6.590;2023-04-25T10:14:47;4.67;;;1.93;;
8540;SDS011;4308;51.294;6.590;2023-04-25T10:17:15;5.40;;;1.93;;
8540;SDS011;4308;51.294;6.590;2023-04-25T10:19:42;4.90;;;1.90;;
8540;SDS011;4308;51.294;6.590;2023-04-25T10:24:50;10.13;;;2.70;;
8540;SDS011;4308;51.294;6.590;2023-04-25T10:27:18;6.77;;;1.80;;
8540;SDS011;4308;51.294;6.590;2023-04-25T10:29:45;5.87;;;2.00;;
8540;SDS011;4308;51.294;6.590;2023-04-25T10:32:27;8.37;;;2.03;;
8540;SDS011;4308;51.294;6.590;2023-04-25T10:34:56;7.93;;;2.17;;
8540;SDS011;4308;51.294;6.590;2023-04-25T10:37:24;7.97;;;1.83;;
8540;SDS011;4308;51.294;6.590;2023-04-25T10:39:52;9.37;;;2.53;;
8540;SDS011;4308;51.294;6.590;2023-04-25T10:42:19;10.50;;;2.03;;
8540;SDS011;4308;51.294;6.590;2023-04-25T10:45:00;11.50;;;2.87;;
8540;SDS011;4308;51.294;6.590;2023-04-25T10:47:35;6.90;;;2.20;;
8540;SDS011;4308;51.294;6.590;2023-04-25T10:50:06;6.53;;;2.23;;
8540;SDS011;4308;51.294;6.590;2023-04-25T10:52:35;8.47;;;2.33;;
8540;SDS011;4308;51.294;6.590;2023-04-25T10:55:05;4.87;;;1.80;;
8540;SDS011;4308;51.294;6.590;2023-04-25T10:57:40;6.87;;;1.73;;
8540;SDS011;4308;51.294;6.590;2023-04-25T11:00:14;2.70;;;1.30;;
8540;SDS011;4308;51.294;6.590;2023-04-25T11:02:46;5.03;;;1.70;;
8540;SDS011;4308;51.294;6.590;2023-04-25T11:05:19;2.73;;;1.40;;
8540;SDS011;4308;51.294;6.590;2023-04-25T11:10:31;5.13;;;1.80;;
8540;SDS011;4308;51.294;6.590;2023-04-25T11:12:58;6.53;;;1.93;;
8540;SDS011;4308;51.294;6.590;2023-04-25T11:15:26;7.57;;;2.33;;
8540;SDS011;4308;51.294;6.590;2023-04-25T11:17:54;4.97;;;1.50;;
8540;SDS011;4308;51.294;6.590;2023-04-25T11:20:24;7.63;;;2.10;;
8540;SDS011;4308;51.294;6.590;2023-04-25T11:22:52;3.53;;;1.80;;
8540;SDS011;4308;51.294;6.590;2023-04-25T11:25:20;4.00;;;1.60;;
8540;SDS011;4308;51.294;6.590;2023-04-25T11:27:54;8.37;;;1.83;;
8540;SDS011;4308;51.294;6.590;2023-04-25T11:30:22;7.53;;;2.23;;
8540;SDS011;4308;51.294;6.590;2023-04-25T11:32:50;4.87;;;1.90;;
8540;SDS011;4308;51.294;6.590;2023-04-25T11:35:19;5.50;;;2.07;;
8540;SDS011;4308;51.294;6.590;2023-04-25T11:37:46;8.13;;;1.83;;
8540;SDS011;4308;51.294;6.590;2023-04-25T11:40:14;9.10;;;2.37;;
8540;SDS011;4308;51.294;6.590;2023-04-25T11:42:43;6.73;;;2.13;;
8540;SDS011;4308;51.294;6.590;2023-04-25T11:45:11;6.60;;;2.33;;
8540;SDS011;4308;51.294;6.590;2023-04-25T11:47:39;9.43;;;2.27;;
8540;SDS011;4308;51.294;6.590;2023-04-25T11:50:07;6.68;;;2.53;;
8540;SDS011;4308;51.294;6.590;2023-04-25T11:52:36;6.93;;;2.10;;
8540;SDS011;4308;51.294;6.590;2023-04-25T11:55:05;3.57;;;1.83;;
8540;SDS011;4308;51.294;6.590;2023-04-25T11:57:35;5.13;;;2.00;;
8540;SDS011;4308;51.294;6.590;2023-04-25T12:00:20;3.87;;;1.40;;
8540;SDS011;4308;51.294;6.590;2023-04-25T12:02:52;3.93;;;1.53;;
8540;SDS011;4308;51.294;6.590;2023-04-25T12:05:23;8.57;;;1.87;;
8540;SDS011;4308;51.294;6.590;2023-04-25T12:07:54;3.67;;;1.80;;
8540;SDS011;4308;51.294;6.590;2023-04-25T12:10:21;3.43;;;1.37;;
8540;SDS011;4308;51.294;6.590;2023-04-25T12:12:51;4.27;;;1.43;;
8540;SDS011;4308;51.294;6.590;2023-04-25T12:15:23;6.17;;;1.63;;
8540;SDS011;4308;51.294;6.590;2023-04-25T12:17:51;8.90;;;1.93;;
8540;SDS011;4308;51.294;6.590;2023-04-25T12:20:20;5.93;;;1.53;;
8540;SDS011;4308;51.294;6.590;2023-04-25T12:22:48;3.60;;;2.23;;
8540;SDS011;4308;51.294;6.590;2023-04-25T12:25:35;5.20;;;1.83;;
8540;SDS011;4308;51.294;6.590;2023-04-25T12:28:16;6.77;;;1.97;;
8540;SDS011;4308;51.294;6.590;2023-04-25T12:33:24;7.53;;;2.10;;
8540;SDS011;4308;51.294;6.590;2023-04-25T12:35:52;2.67;;;1.60;;
8540;SDS011;4308;51.294;6.590;2023-04-25T12:38:24;4.67;;;2.00;;
8540;SDS011;4308;51.294;6.590;2023-04-25T12:40:52;5.72;;;1.77;;
8540;SDS011;4308;51.294;6.590;2023-04-25T12:43:20;6.23;;;2.00;;
8540;SDS011;4308;51.294;6.590;2023-04-25T12:45:48;5.30;;;2.23;;
8540;SDS011;4308;51.294;6.590;2023-04-25T12:48:16;5.07;;;1.83;;
8540;SDS011;4308;51.294;6.590;2023-04-25T12:50:44;8.07;;;2.23;;
8540;SDS011;4308;51.294;6.590;2023-04-25T12:53:12;4.77;;;2.30;;
8540;SDS011;4308;51.294;6.590;2023-04-25T12:55:40;5.53;;;2.20;;
8540;SDS011;4308;51.294;6.590;2023-04-25T12:58:07;7.30;;;2.13;;
8540;SDS011;4308;51.294;6.590;2023-04-25T13:00:35;6.13;;;2.13;;
8540;SDS011;4308;51.294;6.590;2023-04-25T13:03:02;5.37;;;2.10;;
8540;SDS011;4308;51.294;6.590;2023-04-25T13:05:30;11.37;;;2.20;;
8540;SDS011;4308;51.294;6.590;2023-04-25T13:07:58;3.07;;;1.70;;
8540;SDS011;4308;51.294;6.590;2023-04-25T13:10:25;2.13;;;1.30;;
8540;SDS011;4308;51.294;6.590;2023-04-25T13:12:53;5.17;;;1.20;;
8540;SDS011;4308;51.294;6.590;2023-04-25T13:15:20;4.43;;;2.17;;
8540;SDS011;4308;51.294;6.590;2023-04-25T13:17:48;4.47;;;1.40;;
8540;SDS011;4308;51.294;6.590;2023-04-25T13:20:16;4.50;;;1.67;;
8540;SDS011;4308;51.294;6.590;2023-04-25T13:22:43;3.30;;;1.30;;
8540;SDS011;4308;51.294;6.590;2023-04-25T13:25:11;3.17;;;1.27;;
8540;SDS011;4308;51.294;6.590;2023-04-25T13:27:38;3.23;;;1.50;;
8540;SDS011;4308;51.294;6.590;2023-04-25T13:30:06;4.53;;;1.50;;
8540;SDS011;4308;51.294;6.590;2023-04-25T13:32:34;3.60;;;2.00;;
8540;SDS011;4308;51.294;6.590;2023-04-25T13:35:05;3.67;;;1.37;;
8540;SDS011;4308;51.294;6.590;2023-04-25T13:37:36;6.73;;;1.80;;
8540;SDS011;4308;51.294;6.590;2023-04-25T13:40:05;7.03;;;1.60;;
8540;SDS011;4308;51.294;6.590;2023-04-25T13:42:33;3.40;;;1.47;;
8540;SDS011;4308;51.294;6.590;2023-04-25T13:45:01;5.03;;;2.08;;
8540;SDS011;4308;51.294;6.590;2023-04-25T13:47:29;4.97;;;2.20;;
8540;SDS011;4308;51.294;6.590;2023-04-25T13:49:57;4.70;;;1.63;;
8540;SDS011;4308;51.294;6.590;2023-04-25T13:52:24;2.77;;;1.20;;
8540;SDS011;4308;51.294;6.590;2023-04-25T13:54:52;3.03;;;1.70;;
8540;SDS011;4308;51.294;6.590;2023-04-25T13:57:19;5.00;;;1.90;;
8540;SDS011;4308;51.294;6.590;2023-04-25T13:59:47;5.57;;;1.90;;
8540;SDS011;4308;51.294;6.590;2023-04-25T14:02:15;9.10;;;1.83;;
8540;SDS011;4308;51.294;6.590;2023-04-25T14:04:42;4.63;;;2.00;;
8540;SDS011;4308;51.294;6.590;2023-04-25T14:07:10;5.07;;;1.80;;
8540;SDS011;4308;51.294;6.590;2023-04-25T14:09:37;5.67;;;2.10;;
8540;SDS011;4308;51.294;6.590;2023-04-25T14:12:05;3.77;;;1.70;;
8540;SDS011;4308;51.294;6.590;2023-04-25T14:14:32;4.57;;;1.90;;
8540;SDS011;4308;51.294;6.590;2023-04-25T14:17:00;4.90;;;1.67;;
8540;SDS011;4308;51.294;6.590;2023-04-25T14:19:28;3.33;;;1.60;;
8540;SDS011;4308;51.294;6.590;2023-04-25T14:21:55;4.53;;;1.40;;
8540;SDS011;4308;51.294;6.590;2023-04-25T14:24:23;3.37;;;1.37;;
8540;SDS011;4308;51.294;6.590;2023-04-25T14:26:50;5.00;;;1.83;;
8540;SDS011;4308;51.294;6.590;2023-04-25T14:29:18;4.23;;;1.60;;
8540;SDS011;4308;51.294;6.590;2023-04-25T14:31:46;4.07;;;1.57;;
8540;SDS011;4308;51.294;6.590;2023-04-25T14:34:14;5.53;;;1.60;;
8540;SDS011;4308;51.294;6.590;2023-04-25T14:36:41;3.57;;;1.60;;
8540;SDS011;4308;51.294;6.590;2023-04-25T14:39:09;3.73;;;1.50;;
8540;SDS011;4308;51.294;6.590;2023-04-25T14:41:37;2.67;;;1.30;;
8540;SDS011;4308;51.294;6.590;2023-04-25T14:44:04;2.43;;;1.40;;
8540;SDS011;4308;51.294;6.590;2023-04-25T14:46:32;3.77;;;1.60;;
8540;SDS011;4308;51.294;6.590;2023-04-25T14:49:00;4.17;;;1.27;;
8540;SDS011;4308;51.294;6.590;2023-04-25T14:51:28;5.17;;;1.20;;
8540;SDS011;4308;51.294;6.590;2023-04-25T14:53:56;2.33;;;1.20;;
8540;SDS011;4308;51.294;6.590;2023-04-25T14:56:23;3.67;;;1.53;;
8540;SDS011;4308;51.294;6.590;2023-04-25T14:58:51;4.13;;;1.50;;
8540;SDS011;4308;51.294;6.590;2023-04-25T15:01:18;3.13;;;1.50;;
8540;SDS011;4308;51.294;6.590;2023-04-25T15:03:46;1.67;;;1.07;;
8540;SDS011;4308;51.294;6.590;2023-04-25T15:06:14;3.67;;;1.20;;
8540;SDS011;4308;51.294;6.590;2023-04-25T15:08:42;4.33;;;1.73;;
8540;SDS011;4308;51.294;6.590;2023-04-25T15:11:09;4.27;;;1.50;;
8540;SDS011;4308;51.294;6.590;2023-04-25T15:13:37;3.63;;;1.40;;
8540;SDS011;4308;51.294;6.590;2023-04-25T15:16:05;2.83;;;1.30;;
8540;SDS011;4308;51.294;6.590;2023-04-25T15:18:32;7.73;;;1.90;;
8540;SDS011;4308;51.294;6.590;2023-04-25T15:21:00;4.27;;;1.87;;